createdAt,value
2018-07-15T00:01:09.926Z,19.90
2018-07-15T00:03:38.134Z,25.10
2018-07-15T00:06:06.443Z,10.13
2018-07-15T00:08:34.634Z,12.70
2018-07-15T00:11:02.805Z,10.60
2018-07-15T00:13:30.987Z,12.47
2018-07-15T00:15:59.198Z,12.07
2018-07-15T00:18:27.385Z,10.67
2018-07-15T00:20:55.567Z,11.20
2018-07-15T00:23:23.773Z,24.37
2018-07-15T00:25:51.964Z,20.23
2018-07-15T00:28:19.921Z,12.57
2018-07-15T00:30:48.142Z,15.73
2018-07-15T00:33:16.353Z,9.93
2018-07-15T00:35:44.514Z,10.03
2018-07-15T00:38:12.736Z,10.40
2018-07-15T00:40:40.686Z,13.13
2018-07-15T00:43:08.887Z,12.57
2018-07-15T00:45:37.109Z,19.07
2018-07-15T00:48:05.321Z,11.77
2018-07-15T00:50:33.543Z,13.93
2018-07-15T00:53:01.756Z,11.60
2018-07-15T00:55:29.947Z,12.10
2018-07-15T00:57:58.195Z,10.93
2018-07-15T01:00:31.816Z,10.37
2018-07-15T01:03:00.020Z,11.20
2018-07-15T01:05:28.246Z,10.17
2018-07-15T01:07:56.427Z,10.53
2018-07-15T01:10:24.688Z,11.87
2018-07-15T01:12:52.938Z,10.10
2018-07-15T01:15:21.118Z,11.27
2018-07-15T01:17:49.437Z,9.97
2018-07-15T01:20:17.699Z,22.97
2018-07-15T01:22:45.882Z,15.33
2018-07-15T01:25:14.147Z,15.40
2018-07-15T01:27:42.388Z,14.63
2018-07-15T01:30:10.593Z,16.87
2018-07-15T01:32:38.786Z,11.70
2018-07-15T01:35:07.021Z,11.77
2018-07-15T01:37:35.234Z,12.77
2018-07-15T01:40:03.477Z,11.37
2018-07-15T01:42:31.637Z,10.40
2018-07-15T01:44:59.800Z,9.27
2018-07-15T01:47:27.960Z,10.67
2018-07-15T01:49:56.374Z,11.40
2018-07-15T01:52:24.536Z,12.33
2018-07-15T01:54:52.686Z,13.33
2018-07-15T01:57:20.636Z,11.97
2018-07-15T01:59:48.877Z,10.97
2018-07-15T02:02:17.056Z,10.30
2018-07-15T02:04:45.305Z,9.97
2018-07-15T02:07:13.552Z,9.47
2018-07-15T02:09:41.807Z,19.80
2018-07-15T02:12:10.066Z,9.43
2018-07-15T02:14:38.367Z,11.63
2018-07-15T02:17:06.635Z,18.07
2018-07-15T02:19:34.796Z,14.93
2018-07-15T02:22:02.951Z,11.73
2018-07-15T02:24:31.130Z,10.63
2018-07-15T02:26:59.277Z,12.20
2018-07-15T02:29:27.448Z,26.33
2018-07-15T02:31:55.376Z,14.07
2018-07-15T02:34:23.661Z,20.90
2018-07-15T02:36:51.992Z,13.10
2018-07-15T02:39:20.206Z,13.97
2018-07-15T02:41:48.577Z,11.53
2018-07-15T02:44:16.841Z,13.13
2018-07-15T02:46:45.091Z,11.50
2018-07-15T02:49:13.430Z,10.60
2018-07-15T02:51:41.789Z,23.00
2018-07-15T02:54:10.101Z,26.90
2018-07-15T02:56:38.105Z,12.77
2018-07-15T02:59:06.554Z,11.00
2018-07-15T03:01:34.552Z,11.67
2018-07-15T03:04:02.960Z,14.30
2018-07-15T03:06:31.239Z,13.43
2018-07-15T03:08:59.535Z,13.03
2018-07-15T03:11:27.869Z,11.90
2018-07-15T03:13:56.231Z,14.67
2018-07-15T03:16:24.538Z,13.93
2018-07-15T03:18:52.834Z,14.43
2018-07-15T03:21:21.194Z,12.87
2018-07-15T03:23:49.600Z,12.77
2018-07-15T03:26:17.953Z,11.77
2018-07-15T03:28:46.257Z,12.10
2018-07-15T03:31:14.517Z,11.30
2018-07-15T03:33:42.797Z,13.27
2018-07-15T03:36:11.105Z,13.27
2018-07-15T03:38:39.192Z,13.47
2018-07-15T03:41:07.610Z,14.33
2018-07-15T03:43:35.937Z,12.57
2018-07-15T03:46:03.973Z,12.73
2018-07-15T03:48:32.461Z,13.00
2018-07-15T03:51:00.742Z,12.77
2018-07-15T03:53:29.094Z,14.47
2018-07-15T03:55:57.450Z,14.57
2018-07-15T03:58:25.792Z,15.20
2018-07-15T04:00:54.264Z,15.73
2018-07-15T04:03:22.713Z,13.93
2018-07-15T04:05:51.081Z,13.63
2018-07-15T04:08:19.418Z,13.80
2018-07-15T04:10:47.826Z,12.57
2018-07-15T04:13:16.126Z,12.77
2018-07-15T04:15:44.509Z,12.17
2018-07-15T04:18:12.765Z,14.07
2018-07-15T04:20:41.072Z,12.27
2018-07-15T04:23:12.337Z,13.00
2018-07-15T04:25:40.628Z,13.33
2018-07-15T04:28:08.952Z,14.17
2018-07-15T04:30:37.473Z,11.73
2018-07-15T04:33:06.037Z,13.60
2018-07-15T04:35:34.335Z,13.53
2018-07-15T04:38:02.652Z,13.23
2018-07-15T04:40:30.887Z,11.90
2018-07-15T04:42:59.248Z,12.43
2018-07-15T04:45:27.549Z,12.17
2018-07-15T04:47:55.900Z,11.87
2018-07-15T04:50:24.246Z,10.17
2018-07-15T04:52:52.613Z,12.40
2018-07-15T04:55:20.976Z,11.93
2018-07-15T04:57:49.370Z,12.10
2018-07-15T05:00:17.769Z,12.53
2018-07-15T05:02:46.595Z,14.20
2018-07-15T05:05:14.910Z,13.13
2018-07-15T05:07:43.220Z,12.83
2018-07-15T05:10:11.597Z,12.93
2018-07-15T05:12:39.956Z,12.17
2018-07-15T05:15:08.224Z,12.87
2018-07-15T05:17:36.429Z,13.20
2018-07-15T05:20:04.641Z,11.83
2018-07-15T05:22:32.842Z,12.23
2018-07-15T05:25:00.804Z,12.43
2018-07-15T05:27:28.962Z,12.83
2018-07-15T05:29:57.141Z,12.73
2018-07-15T05:32:25.313Z,13.30
2018-07-15T05:34:53.492Z,13.20
2018-07-15T05:37:21.696Z,13.23
2018-07-15T05:39:49.883Z,13.77
2018-07-15T05:42:18.056Z,13.07
2018-07-15T05:44:46.258Z,12.00
2018-07-15T05:47:14.459Z,12.50
2018-07-15T05:49:42.645Z,13.53
2018-07-15T05:52:10.581Z,12.73
2018-07-15T05:54:38.745Z,12.40
2018-07-15T05:57:06.977Z,11.40
2018-07-15T05:59:35.139Z,11.60
2018-07-15T06:02:03.327Z,12.87
2018-07-15T06:04:31.508Z,12.40
2018-07-15T06:06:59.689Z,13.07
2018-07-15T06:09:27.856Z,12.27
2018-07-15T06:11:56.040Z,12.90
2018-07-15T06:14:24.216Z,13.57
2018-07-15T06:16:52.392Z,12.27
2018-07-15T06:19:20.565Z,12.33
2018-07-15T06:21:48.751Z,13.13
2018-07-15T06:24:16.941Z,12.60
2018-07-15T06:26:45.136Z,12.60
2018-07-15T06:29:13.329Z,12.03
2018-07-15T06:31:41.303Z,12.40
2018-07-15T06:34:09.469Z,12.27
2018-07-15T06:36:37.685Z,12.93
2018-07-15T06:39:06.891Z,12.87
2018-07-15T06:41:35.128Z,12.90
2018-07-15T06:44:03.128Z,12.17
2018-07-15T06:46:31.362Z,12.70
2018-07-15T06:48:59.574Z,15.43
2018-07-15T06:51:27.791Z,13.10
2018-07-15T06:53:55.998Z,11.77
2018-07-15T06:56:23.918Z,12.50
2018-07-15T06:58:52.072Z,12.07
2018-07-15T07:01:20.249Z,12.10
2018-07-15T07:03:48.421Z,11.27
2018-07-15T07:06:16.664Z,13.30
2018-07-15T07:08:44.909Z,12.40
2018-07-15T07:11:13.127Z,13.10
2018-07-15T07:13:41.360Z,13.63
2018-07-15T07:16:09.659Z,12.43
2018-07-15T07:18:37.580Z,12.03
2018-07-15T07:21:05.821Z,11.97
2018-07-15T07:23:34.005Z,12.47
2018-07-15T07:26:02.197Z,11.87
2018-07-15T07:28:30.375Z,11.07
2018-07-15T07:30:58.561Z,11.43
2018-07-15T07:33:26.714Z,10.87
2018-07-15T07:35:54.898Z,11.00
2018-07-15T07:38:23.058Z,9.60
2018-07-15T07:40:51.244Z,10.60
2018-07-15T07:43:19.425Z,10.27
2018-07-15T07:45:47.590Z,9.40
2018-07-15T07:48:15.764Z,10.03
2018-07-15T07:50:43.954Z,9.20
2018-07-15T07:53:12.188Z,9.27
2018-07-15T07:55:40.345Z,9.83
2018-07-15T07:58:08.626Z,8.97
2018-07-15T08:00:36.866Z,10.10
2018-07-15T08:03:05.081Z,9.23
2018-07-15T08:05:33.252Z,8.97
2018-07-15T08:08:01.187Z,8.83
2018-07-15T08:10:29.368Z,8.10
2018-07-15T08:12:57.574Z,8.30
2018-07-15T08:15:25.757Z,8.40
2018-07-15T08:17:53.942Z,8.43
2018-07-15T08:20:22.134Z,8.67
2018-07-15T08:22:50.344Z,9.13
2018-07-15T08:25:18.519Z,9.67
2018-07-15T08:27:46.697Z,9.07
2018-07-15T08:31:24.813Z,8.20
2018-07-15T08:33:52.764Z,8.77
2018-07-15T08:36:20.936Z,8.13
2018-07-15T08:38:49.102Z,9.27
2018-07-15T08:41:17.905Z,8.10
2018-07-15T08:43:46.068Z,7.90
2018-07-15T08:46:14.261Z,7.30
2018-07-15T08:48:42.424Z,7.43
2018-07-15T08:51:10.631Z,8.40
2018-07-15T08:53:38.575Z,8.63
2018-07-15T08:56:06.754Z,8.07
2018-07-15T08:58:34.943Z,7.30
2018-07-15T09:01:02.941Z,7.50
2018-07-15T09:03:31.109Z,6.63
2018-07-15T09:05:59.287Z,6.57
2018-07-15T09:08:27.446Z,8.93
2018-07-15T09:10:55.660Z,5.90
2018-07-15T09:13:23.850Z,7.50
2018-07-15T09:15:52.042Z,7.80
2018-07-15T09:18:20.252Z,7.27
2018-07-15T09:20:48.389Z,7.93
2018-07-15T09:23:16.566Z,11.03
2018-07-15T09:25:44.754Z,13.70
2018-07-15T09:28:12.954Z,8.00
2018-07-15T09:30:41.138Z,7.40
2018-07-15T09:33:09.353Z,6.93
2018-07-15T09:35:37.621Z,6.70
2018-07-15T09:38:05.736Z,6.87
2018-07-15T09:40:33.977Z,6.53
2018-07-15T09:43:02.212Z,7.13
2018-07-15T09:45:30.414Z,7.43
2018-07-15T09:47:58.597Z,7.60
2018-07-15T09:50:26.781Z,8.60
2018-07-15T09:52:54.976Z,7.37
2018-07-15T09:55:23.161Z,6.70
2018-07-15T09:57:51.353Z,7.57
2018-07-15T10:00:24.952Z,6.90
2018-07-15T10:02:53.176Z,6.83
2018-07-15T10:05:21.320Z,6.50
2018-07-15T10:07:49.524Z,6.70
2018-07-15T10:10:17.758Z,7.40
2018-07-15T10:12:45.888Z,7.33
2018-07-15T10:15:13.997Z,6.30
2018-07-15T10:17:42.160Z,6.90
2018-07-15T10:20:11.236Z,6.43
2018-07-15T10:22:39.173Z,6.17
2018-07-15T10:25:07.368Z,6.77
2018-07-15T10:27:35.544Z,6.03
2018-07-15T10:30:03.721Z,6.03
2018-07-15T10:32:31.650Z,6.80
2018-07-15T10:34:59.825Z,7.50
2018-07-15T10:37:28.054Z,7.23
2018-07-15T10:39:55.970Z,6.50
2018-07-15T10:42:24.160Z,7.93
2018-07-15T10:44:52.335Z,6.70
2018-07-15T10:47:20.526Z,6.93
2018-07-15T10:49:48.688Z,7.27
2018-07-15T10:52:16.861Z,5.63
2018-07-15T10:54:45.050Z,6.17
2018-07-15T10:57:13.234Z,6.70
2018-07-15T10:59:41.215Z,6.30
2018-07-15T11:02:09.436Z,6.17
2018-07-15T11:04:37.616Z,5.90
2018-07-15T11:07:05.905Z,7.93
2018-07-15T11:09:34.088Z,5.90
2018-07-15T11:12:02.353Z,7.80
2018-07-15T11:14:30.561Z,5.67
2018-07-15T11:16:58.535Z,5.87
2018-07-15T11:19:26.757Z,9.13
2018-07-15T11:21:54.934Z,5.53
2018-07-15T11:24:23.162Z,5.63
2018-07-15T11:26:51.332Z,5.80
2018-07-15T11:29:19.564Z,8.23
2018-07-15T11:31:47.782Z,5.20
2018-07-15T11:34:16.037Z,5.27
2018-07-15T11:36:44.228Z,5.40
2018-07-15T11:39:12.146Z,5.93
2018-07-15T11:41:40.337Z,5.30
2018-07-15T11:44:08.519Z,5.73
2018-07-15T11:46:36.693Z,5.40
2018-07-15T11:49:04.911Z,5.30
2018-07-15T11:51:33.120Z,4.90
2018-07-15T11:54:01.395Z,5.53
2018-07-15T11:56:29.602Z,5.27
2018-07-15T11:58:57.844Z,5.60
2018-07-15T12:01:26.071Z,5.53
2018-07-15T12:03:54.261Z,5.40
2018-07-15T12:06:22.404Z,5.57
2018-07-15T12:08:50.666Z,6.10
2018-07-15T12:11:18.865Z,5.90
2018-07-15T12:13:47.125Z,5.83
2018-07-15T12:16:15.353Z,6.17
2018-07-15T12:18:43.545Z,6.00
2018-07-15T12:21:11.770Z,6.53
2018-07-15T12:23:39.757Z,5.43
2018-07-15T12:26:07.960Z,8.40
2018-07-15T12:28:36.273Z,6.33
2018-07-15T12:31:04.540Z,5.60
2018-07-15T12:33:32.812Z,5.97
2018-07-15T12:36:01.073Z,6.10
2018-07-15T12:38:29.315Z,6.50
2018-07-15T12:40:57.638Z,5.67
2018-07-15T12:43:25.992Z,6.20
2018-07-15T12:45:53.992Z,7.60
2018-07-15T12:48:22.300Z,6.80
2018-07-15T12:50:50.550Z,7.23
2018-07-15T12:53:18.920Z,12.87
2018-07-15T12:55:47.184Z,9.70
2018-07-15T12:58:15.405Z,9.57
2018-07-15T13:00:43.391Z,7.83
2018-07-15T13:03:11.604Z,9.37
2018-07-15T13:05:39.840Z,8.17
2018-07-15T13:08:08.049Z,9.90
2018-07-15T13:10:36.228Z,10.00
2018-07-15T13:13:04.510Z,11.37
2018-07-15T13:15:32.745Z,9.40
2018-07-15T13:18:01.000Z,7.20
2018-07-15T13:20:28.970Z,6.93
2018-07-15T13:22:57.200Z,7.00
2018-07-15T13:25:25.419Z,6.40
2018-07-15T13:27:53.668Z,6.80
2018-07-15T13:30:21.969Z,7.10
2018-07-15T13:32:50.174Z,6.43
2018-07-15T13:35:18.393Z,5.90
2018-07-15T13:37:46.662Z,6.67
2018-07-15T13:40:14.856Z,6.13
2018-07-15T13:42:43.108Z,9.00
2018-07-15T13:45:11.288Z,8.53
2018-07-15T13:50:29.886Z,14.67
2018-07-15T13:52:58.487Z,17.60
2018-07-15T13:55:26.758Z,24.63
2018-07-15T13:57:54.765Z,18.23
2018-07-15T14:00:22.978Z,15.17
2018-07-15T14:02:51.282Z,14.13
2018-07-15T14:05:19.677Z,19.90
2018-07-15T14:07:48.129Z,18.57
2018-07-15T14:10:16.522Z,16.23
2018-07-15T14:12:44.860Z,14.37
2018-07-15T14:15:13.259Z,17.23
2018-07-15T14:17:41.440Z,21.97
2018-07-15T14:20:10.143Z,29.50
2018-07-15T14:22:38.408Z,16.77
2018-07-15T14:25:06.415Z,18.07
2018-07-15T14:27:34.619Z,18.97
2018-07-15T14:30:02.833Z,17.53
2018-07-15T14:32:31.347Z,26.07
2018-07-15T14:34:59.543Z,34.20
2018-07-15T14:37:27.810Z,16.07
2018-07-15T14:39:56.155Z,19.43
2018-07-15T14:42:24.634Z,25.07
2018-07-15T14:44:52.975Z,19.43
2018-07-15T14:47:21.463Z,23.17
2018-07-15T14:49:49.814Z,17.70
2018-07-15T14:52:18.238Z,19.10
2018-07-15T14:54:46.409Z,16.10
2018-07-15T14:57:14.483Z,16.70
2018-07-15T14:59:42.489Z,13.37
2018-07-15T15:02:11.007Z,12.33
2018-07-15T15:04:39.375Z,9.17
2018-07-15T15:07:07.715Z,8.90
2018-07-15T15:09:36.074Z,12.03
2018-07-15T15:12:04.098Z,6.90
2018-07-15T15:14:32.531Z,9.97
2018-07-15T15:17:01.038Z,6.53
2018-07-15T15:19:29.502Z,9.03
2018-07-15T15:21:57.573Z,5.57
2018-07-15T15:24:25.867Z,5.87
2018-07-15T15:26:54.238Z,6.93
2018-07-15T15:29:22.857Z,4.37
2018-07-15T15:31:51.278Z,6.13
2018-07-15T15:34:19.385Z,4.57
2018-07-15T15:36:47.768Z,5.97
2018-07-15T15:39:16.114Z,8.37
2018-07-15T15:41:44.622Z,9.37
2018-07-15T15:44:12.944Z,6.20
2018-07-15T15:46:41.346Z,4.87
2018-07-15T15:49:09.500Z,7.50
2018-07-15T15:51:37.903Z,7.20
2018-07-15T15:54:06.002Z,3.67
2018-07-15T15:56:34.399Z,3.97
2018-07-15T15:59:02.706Z,7.40
2018-07-15T16:01:31.068Z,5.27
2018-07-15T16:03:59.311Z,7.97
2018-07-15T16:06:27.662Z,3.30
2018-07-15T16:08:55.770Z,3.40
2018-07-15T16:11:24.187Z,4.87
2018-07-15T16:13:52.658Z,6.20
2018-07-15T16:16:20.998Z,7.10
2018-07-15T16:18:49.294Z,4.93
2018-07-15T16:21:17.704Z,5.43
2018-07-15T16:23:46.226Z,6.33
2018-07-15T16:26:14.506Z,4.03
2018-07-15T16:28:42.810Z,4.23
2018-07-15T16:31:11.065Z,4.33
2018-07-15T16:33:39.447Z,4.77
2018-07-15T16:36:07.794Z,3.73
2018-07-15T16:38:36.211Z,3.70
2018-07-15T16:41:04.526Z,3.23
2018-07-15T16:43:32.735Z,3.73
2018-07-15T16:46:01.010Z,3.10
2018-07-15T16:48:29.246Z,4.20
2018-07-15T16:50:57.534Z,4.33
2018-07-15T16:53:25.891Z,2.80
2018-07-15T16:55:54.225Z,2.83
2018-07-15T16:58:22.540Z,2.10
2018-07-15T17:00:50.862Z,2.47
2018-07-15T17:03:18.921Z,2.50
2018-07-15T17:05:47.199Z,4.10
2018-07-15T17:08:15.491Z,2.60
2018-07-15T17:10:43.511Z,5.07
2018-07-15T17:13:11.794Z,3.47
2018-07-15T17:15:40.057Z,5.37
2018-07-15T17:18:08.351Z,2.50
2018-07-15T17:20:36.619Z,1.60
2018-07-15T17:23:04.882Z,2.53
2018-07-15T17:25:33.208Z,2.00
2018-07-15T17:28:01.548Z,1.53
2018-07-15T17:30:29.879Z,2.10
2018-07-15T17:32:58.177Z,5.33
2018-07-15T17:35:26.541Z,7.90
2018-07-15T17:37:54.541Z,3.90
2018-07-15T17:40:22.887Z,4.00
2018-07-15T17:42:51.215Z,5.43
2018-07-15T17:45:19.586Z,4.47
2018-07-15T17:47:47.912Z,4.37
2018-07-15T17:50:15.902Z,3.80
2018-07-15T17:52:44.323Z,4.20
2018-07-15T17:55:12.608Z,4.30
2018-07-15T17:57:40.906Z,3.27
2018-07-15T18:00:09.175Z,3.13
2018-07-15T18:02:37.458Z,2.83
2018-07-15T18:05:05.826Z,3.30
2018-07-15T18:07:34.209Z,4.20
2018-07-15T18:10:02.531Z,3.33
2018-07-15T18:12:30.862Z,3.70
2018-07-15T18:14:59.307Z,3.73
2018-07-15T18:17:27.784Z,5.57
2018-07-15T18:19:56.281Z,5.03
2018-07-15T18:22:24.351Z,5.50
2018-07-15T18:24:52.629Z,5.37
2018-07-15T18:27:20.917Z,4.43
2018-07-15T18:29:49.227Z,5.37
2018-07-15T18:32:17.321Z,4.90
2018-07-15T18:34:45.735Z,6.07
2018-07-15T18:37:14.023Z,5.53
2018-07-15T18:39:42.351Z,5.17
2018-07-15T18:42:10.755Z,5.30
2018-07-15T18:44:39.311Z,3.83
2018-07-15T18:47:07.613Z,6.37
2018-07-15T18:49:35.932Z,4.43
2018-07-15T18:52:04.263Z,7.60
2018-07-15T18:54:32.587Z,19.57
2018-07-15T18:57:00.867Z,8.97
2018-07-15T18:59:29.418Z,6.27
2018-07-15T19:01:57.755Z,7.60
2018-07-15T19:04:25.690Z,8.93
2018-07-15T19:06:53.901Z,5.97
2018-07-15T19:09:22.071Z,6.47
2018-07-15T19:11:50.081Z,8.37
2018-07-15T19:14:18.266Z,5.33
2018-07-15T19:16:46.450Z,5.53
2018-07-15T19:19:14.597Z,6.40
2018-07-15T19:21:42.769Z,5.80
2018-07-15T19:24:10.935Z,6.80
2018-07-15T19:26:39.096Z,5.43
2018-07-15T19:29:07.266Z,5.73
2018-07-15T19:31:35.499Z,5.43
2018-07-15T19:34:03.610Z,6.57
2018-07-15T19:36:31.568Z,7.07
2018-07-15T19:38:59.505Z,7.40
2018-07-15T19:41:27.679Z,6.93
2018-07-15T19:43:55.854Z,7.80
2018-07-15T19:46:24.038Z,7.60
2018-07-15T19:48:52.212Z,6.23
2018-07-15T19:51:20.437Z,6.77
2018-07-15T19:53:48.598Z,6.73
2018-07-15T19:56:16.763Z,7.37
2018-07-15T19:58:44.689Z,6.70
2018-07-15T20:01:12.898Z,11.27
2018-07-15T20:03:41.037Z,10.97
2018-07-15T20:06:09.223Z,10.73
2018-07-15T20:08:37.399Z,9.30
2018-07-15T20:11:05.598Z,9.37
2018-07-15T20:13:33.786Z,9.07
2018-07-15T20:16:02.010Z,12.50
2018-07-15T20:18:30.208Z,23.43
2018-07-15T20:20:58.461Z,20.27
2018-07-15T20:23:26.627Z,10.03
2018-07-15T20:25:54.856Z,12.23
2018-07-15T20:28:23.019Z,8.90
2018-07-15T20:30:51.027Z,8.70
2018-07-15T20:33:19.278Z,8.50
2018-07-15T20:35:47.461Z,9.53
2018-07-15T20:38:15.638Z,10.03
2018-07-15T20:40:43.857Z,10.27
2018-07-15T20:43:12.074Z,13.30
2018-07-15T20:45:40.026Z,9.67
2018-07-15T20:48:08.230Z,8.03
2018-07-15T20:50:36.442Z,9.07
2018-07-15T20:53:04.662Z,8.97
2018-07-15T20:55:32.609Z,10.70
2018-07-15T20:58:00.863Z,8.43
2018-07-15T21:00:29.075Z,7.60
2018-07-15T21:02:57.284Z,7.80
2018-07-15T21:05:25.463Z,9.23
2018-07-15T21:07:53.663Z,9.53
2018-07-15T21:10:21.874Z,9.60
2018-07-15T21:12:49.841Z,9.97
2018-07-15T21:15:18.439Z,9.70
2018-07-15T21:17:46.815Z,9.30
2018-07-15T21:20:14.745Z,9.93
2018-07-15T21:22:42.970Z,8.33
2018-07-15T21:25:11.153Z,11.30
2018-07-15T21:27:39.350Z,9.23
2018-07-15T21:30:07.522Z,12.47
2018-07-15T21:32:35.686Z,11.07
2018-07-15T21:35:03.874Z,8.37
2018-07-15T21:37:32.054Z,10.70
2018-07-15T21:40:00.273Z,11.07
2018-07-15T21:42:28.456Z,13.30
2018-07-15T21:44:56.476Z,9.00
2018-07-15T21:47:24.653Z,11.53
2018-07-15T21:49:52.868Z,11.40
2018-07-15T21:52:21.091Z,9.10
2018-07-15T21:54:49.278Z,10.13
2018-07-15T21:57:17.491Z,14.43
2018-07-15T21:59:45.727Z,11.37
2018-07-15T22:02:14.313Z,13.03
2018-07-15T22:04:42.507Z,10.73
2018-07-15T22:07:22.008Z,12.77
2018-07-15T22:10:01.665Z,11.10
2018-07-15T22:12:29.898Z,11.40
2018-07-15T22:14:58.057Z,11.23
2018-07-15T22:17:26.027Z,10.37
2018-07-15T22:19:54.200Z,13.33
2018-07-15T22:22:22.435Z,12.97
2018-07-15T22:24:50.604Z,13.17
2018-07-15T22:27:18.843Z,11.33
2018-07-15T22:29:47.027Z,10.27
2018-07-15T22:32:15.232Z,9.50
2018-07-15T22:34:43.434Z,12.57
2018-07-15T22:37:11.629Z,9.07
2018-07-15T22:39:39.569Z,10.67
2018-07-15T22:42:07.765Z,10.47
2018-07-15T22:44:35.927Z,10.17
2018-07-15T22:47:04.118Z,11.23
2018-07-15T22:49:32.049Z,12.70
2018-07-15T22:52:00.252Z,28.27
2018-07-15T22:54:28.437Z,27.27
2018-07-15T22:56:56.630Z,15.57
2018-07-15T22:59:24.778Z,16.57
2018-07-15T23:01:52.704Z,11.73
2018-07-15T23:05:31.890Z,14.73
2018-07-15T23:07:59.921Z,15.47
2018-07-15T23:10:27.778Z,17.23
2018-07-15T23:12:55.979Z,11.87
2018-07-15T23:15:24.138Z,20.47
2018-07-15T23:17:53.153Z,34.07
2018-07-15T23:20:21.316Z,24.93
2018-07-15T23:22:49.545Z,11.87
2018-07-15T23:25:17.789Z,14.67
2018-07-15T23:27:46.026Z,10.43
2018-07-15T23:30:14.182Z,12.80
2018-07-15T23:32:42.501Z,11.43
2018-07-15T23:35:10.718Z,10.03
2018-07-15T23:37:38.879Z,14.50
2018-07-15T23:40:06.802Z,12.53
2018-07-15T23:42:35.730Z,10.63
2018-07-15T23:45:04.011Z,8.97
2018-07-15T23:47:31.933Z,9.77
2018-07-15T23:50:00.098Z,9.97
2018-07-15T23:52:28.262Z,10.60
2018-07-15T23:54:56.434Z,9.30
2018-07-15T23:57:24.618Z,10.33
2018-07-15T23:59:52.803Z,11.50
